createdAt,value
2022-10-28T00:00:54.127Z,66.10
2022-10-28T00:03:22.160Z,66.00
2022-10-28T00:05:49.943Z,66.00
2022-10-28T00:08:17.687Z,66.00
2022-10-28T00:10:45.428Z,66.00
2022-10-28T00:13:13.140Z,66.00
2022-10-28T00:15:42.251Z,66.10
2022-10-28T00:18:11.215Z,66.10
2022-10-28T00:20:38.994Z,66.10
2022-10-28T00:23:06.737Z,66.10
2022-10-28T00:25:34.483Z,66.10
2022-10-28T00:28:02.270Z,66.10
2022-10-28T00:33:00.069Z,66.10
2022-10-28T00:35:27.798Z,66.10
2022-10-28T00:37:55.572Z,66.10
2022-10-28T00:40:23.599Z,66.10
2022-10-28T00:42:51.758Z,66.10
2022-10-28T00:45:19.887Z,66.20
2022-10-28T00:47:55.302Z,66.30
2022-10-28T00:50:40.468Z,66.20
2022-10-28T00:53:11.911Z,66.30
2022-10-28T00:55:39.820Z,66.40
2022-10-28T00:58:09.512Z,66.30
2022-10-28T01:00:37.418Z,66.30
2022-10-28T01:03:05.343Z,66.30
2022-10-28T01:05:38.734Z,66.30
2022-10-28T01:08:07.340Z,66.30
2022-10-28T01:10:58.434Z,66.30
2022-10-28T01:13:41.240Z,66.30
2022-10-28T01:16:19.806Z,66.40
2022-10-28T01:18:59.112Z,66.50
2022-10-28T01:21:53.558Z,66.50
2022-10-28T01:24:53.656Z,67.10
2022-10-28T01:27:53.483Z,66.50
2022-10-28T01:30:22.411Z,66.50
2022-10-28T01:33:00.628Z,66.60
2022-10-28T01:35:34.340Z,66.60
2022-10-28T01:38:24.008Z,66.70
2022-10-28T01:40:59.933Z,66.70
2022-10-28T01:43:30.918Z,66.70
2022-10-28T01:46:03.572Z,66.70
2022-10-28T01:51:10.491Z,66.60
2022-10-28T01:53:41.666Z,66.60
2022-10-28T01:56:13.220Z,66.80
2022-10-28T01:58:42.008Z,66.70
2022-10-28T02:01:11.737Z,66.80
2022-10-28T02:03:40.859Z,66.90
2022-10-28T02:06:16.584Z,66.80
2022-10-28T02:09:03.858Z,66.80
2022-10-28T02:11:44.134Z,66.80
2022-10-28T02:14:22.976Z,66.90
2022-10-28T02:16:52.739Z,66.90
2022-10-28T02:19:30.363Z,66.80
2022-10-28T02:22:14.280Z,66.90
2022-10-28T02:24:51.012Z,66.90
2022-10-28T02:27:30.142Z,67.00
2022-10-28T02:30:04.838Z,67.00
2022-10-28T02:32:38.325Z,67.00
2022-10-28T02:35:13.312Z,67.00
2022-10-28T02:37:42.525Z,67.00
2022-10-28T02:40:15.843Z,67.00
2022-10-28T02:42:49.741Z,67.00
2022-10-28T02:45:20.356Z,67.00
2022-10-28T02:47:52.604Z,67.00
2022-10-28T02:50:26.021Z,67.10
2022-10-28T02:52:59.341Z,67.10
2022-10-28T02:55:33.260Z,67.10
2022-10-28T02:58:01.341Z,67.00
2022-10-28T03:00:29.093Z,67.00
2022-10-28T03:02:56.918Z,67.00
2022-10-28T03:05:26.040Z,67.00
2022-10-28T03:07:54.118Z,67.00
2022-10-28T03:10:22.157Z,67.10
2022-10-28T03:12:49.907Z,67.00
2022-10-28T03:15:17.891Z,67.00
2022-10-28T03:17:45.709Z,67.00
2022-10-28T03:20:13.505Z,67.00
2022-10-28T03:22:43.838Z,67.10
2022-10-28T03:25:11.919Z,67.00
2022-10-28T03:27:41.308Z,67.00
2022-10-28T03:30:09.827Z,67.00
2022-10-28T03:32:37.582Z,67.00
2022-10-28T03:35:06.552Z,66.80
2022-10-28T03:37:34.290Z,67.00
2022-10-28T03:40:07.735Z,67.00
2022-10-28T03:42:37.605Z,67.00
2022-10-28T03:45:08.664Z,67.00
2022-10-28T03:47:36.715Z,67.10
2022-10-28T03:50:04.857Z,67.10
2022-10-28T03:52:32.635Z,67.10
2022-10-28T03:55:00.444Z,67.10
2022-10-28T03:57:33.117Z,67.20
2022-10-28T04:00:00.905Z,67.10
2022-10-28T04:02:28.832Z,67.30
2022-10-28T04:04:56.648Z,67.20
2022-10-28T04:07:24.768Z,67.20
2022-10-28T04:09:52.554Z,67.20
2022-10-28T04:12:20.288Z,67.20
2022-10-28T04:14:49.373Z,67.30
2022-10-28T04:17:17.143Z,67.20
2022-10-28T04:19:44.902Z,67.20
2022-10-28T04:22:12.651Z,67.20
2022-10-28T04:24:40.425Z,67.30
2022-10-28T04:27:08.236Z,67.20
2022-10-28T04:29:36.096Z,67.20
2022-10-28T04:32:05.299Z,67.20
2022-10-28T04:34:33.040Z,67.20
2022-10-28T04:37:00.840Z,67.30
2022-10-28T04:39:28.627Z,67.20
2022-10-28T04:41:56.392Z,67.20
2022-10-28T04:44:24.209Z,67.10
2022-10-28T04:46:51.980Z,67.70
2022-10-28T04:49:21.088Z,67.10
2022-10-28T04:51:48.816Z,67.20
2022-10-28T04:54:16.583Z,67.30
2022-10-28T04:56:44.405Z,67.10
2022-10-28T04:59:12.416Z,67.10
2022-10-28T05:01:40.244Z,67.10
2022-10-28T05:04:08.270Z,67.30
2022-10-28T05:06:37.370Z,67.10
2022-10-28T05:09:05.313Z,67.20
2022-10-28T05:11:33.097Z,67.20
2022-10-28T05:14:00.969Z,67.10
2022-10-28T05:18:59.102Z,67.20
2022-10-28T05:21:26.891Z,67.10
2022-10-28T05:23:56.026Z,67.10
2022-10-28T05:26:23.791Z,67.10
2022-10-28T05:28:52.150Z,67.20
2022-10-28T05:31:20.230Z,67.10
2022-10-28T05:33:47.970Z,67.20
2022-10-28T05:36:15.935Z,67.20
2022-10-28T05:38:45.465Z,67.20
2022-10-28T05:41:14.657Z,67.20
2022-10-28T05:43:42.399Z,67.20
2022-10-28T05:46:10.878Z,67.20
2022-10-28T05:48:39.119Z,67.30
2022-10-28T05:51:07.031Z,67.30
2022-10-28T05:53:41.864Z,67.20
2022-10-28T05:56:09.793Z,67.40
2022-10-28T05:58:38.979Z,67.40
2022-10-28T06:01:08.528Z,67.30
2022-10-28T06:03:36.559Z,67.20
2022-10-28T06:06:04.557Z,67.20
2022-10-28T06:08:32.682Z,67.20
2022-10-28T06:10:59.770Z,67.10
2022-10-28T06:13:27.517Z,67.10
2022-10-28T06:15:57.258Z,67.20
2022-10-28T06:18:25.085Z,67.20
2022-10-28T06:20:53.919Z,67.10
2022-10-28T06:23:21.796Z,67.10
2022-10-28T06:25:49.804Z,67.00
2022-10-28T06:28:17.596Z,67.00
2022-10-28T06:30:45.379Z,67.00
2022-10-28T06:33:14.507Z,67.00
2022-10-28T06:35:42.358Z,67.10
2022-10-28T06:38:10.313Z,67.00
2022-10-28T06:40:38.047Z,67.10
2022-10-28T06:43:10.936Z,67.00
2022-10-28T06:45:38.700Z,67.00
2022-10-28T06:48:08.033Z,67.10
2022-10-28T06:50:38.303Z,67.10
2022-10-28T06:53:06.545Z,67.10
2022-10-28T06:55:34.305Z,67.00
2022-10-28T06:58:03.231Z,67.00
2022-10-28T07:00:33.151Z,67.00
2022-10-28T07:03:01.251Z,67.00
2022-10-28T07:05:29.487Z,66.90
2022-10-28T07:07:58.579Z,67.00
2022-10-28T07:10:26.436Z,67.00
2022-10-28T07:12:54.690Z,67.70
2022-10-28T07:15:22.684Z,66.90
2022-10-28T07:17:54.631Z,67.00
2022-10-28T07:20:22.674Z,67.00
2022-10-28T07:22:58.027Z,66.90
2022-10-28T07:25:25.883Z,67.00
2022-10-28T07:27:53.958Z,66.90
2022-10-28T07:30:22.013Z,67.70
2022-10-28T07:32:49.798Z,67.00
2022-10-28T07:35:17.678Z,66.90
2022-10-28T07:37:46.407Z,66.90
2022-10-28T07:40:15.907Z,67.00
2022-10-28T07:42:43.697Z,67.10
2022-10-28T07:45:11.486Z,67.10
2022-10-28T07:47:39.417Z,67.00
2022-10-28T07:50:08.597Z,66.90
2022-10-28T07:52:36.702Z,67.00
2022-10-28T07:55:06.148Z,67.00
2022-10-28T07:57:35.960Z,67.00
2022-10-28T08:00:04.989Z,67.00
2022-10-28T08:02:32.742Z,67.00
2022-10-28T08:05:01.889Z,67.00
2022-10-28T08:07:30.444Z,66.90
2022-10-28T08:09:59.456Z,67.00
2022-10-28T08:12:28.202Z,67.00
2022-10-28T08:15:01.651Z,67.00
2022-10-28T08:17:29.465Z,67.00
2022-10-28T08:19:57.249Z,67.00
2022-10-28T08:22:25.113Z,66.90
2022-10-28T08:24:52.944Z,66.70
2022-10-28T08:27:20.726Z,66.80
2022-10-28T08:29:48.469Z,66.90
2022-10-28T08:32:17.595Z,66.80
2022-10-28T08:34:45.342Z,66.80
2022-10-28T08:37:13.152Z,66.80
2022-10-28T08:39:40.946Z,66.70
2022-10-28T08:42:25.674Z,66.50
2022-10-28T08:45:21.075Z,66.60
2022-10-28T08:48:06.599Z,66.50
2022-10-28T08:50:45.826Z,66.50
2022-10-28T08:53:17.861Z,66.50
2022-10-28T08:55:48.462Z,66.50
2022-10-28T08:58:21.383Z,66.60
2022-10-28T09:00:52.992Z,66.40
2022-10-28T09:03:24.203Z,66.50
2022-10-28T09:05:58.775Z,66.40
2022-10-28T09:08:28.652Z,66.40
2022-10-28T09:11:09.353Z,66.30
2022-10-28T09:13:51.095Z,66.50
2022-10-28T09:16:30.350Z,66.40
2022-10-28T09:19:03.891Z,66.40
2022-10-28T09:21:34.425Z,66.40
2022-10-28T09:24:12.310Z,66.30
2022-10-28T09:26:49.302Z,66.20
2022-10-28T09:29:30.996Z,66.30
2022-10-28T09:32:07.128Z,66.10
2022-10-28T09:34:45.149Z,66.00
2022-10-28T09:37:18.583Z,65.90
2022-10-28T09:39:50.026Z,66.00
2022-10-28T09:42:21.784Z,65.90
2022-10-28T09:44:54.271Z,65.70
2022-10-28T09:47:25.227Z,65.80
2022-10-28T09:49:57.941Z,65.70
2022-10-28T09:52:31.509Z,65.40
2022-10-28T09:55:03.957Z,65.40
2022-10-28T09:57:32.986Z,65.40
2022-10-28T10:00:01.383Z,65.20
2022-10-28T10:02:30.956Z,65.20
2022-10-28T10:05:01.715Z,65.00
2022-10-28T10:07:35.888Z,64.60
2022-10-28T10:10:11.513Z,64.90
2022-10-28T10:12:39.875Z,64.90
2022-10-28T10:15:12.414Z,64.90
2022-10-28T10:17:43.829Z,64.90
2022-10-28T10:20:15.250Z,64.80
2022-10-28T10:22:45.092Z,64.70
2022-10-28T10:25:26.256Z,64.70
2022-10-28T10:27:57.411Z,64.50
2022-10-28T10:30:29.413Z,64.60
2022-10-28T10:32:58.475Z,64.40
2022-10-28T10:35:31.655Z,64.60
2022-10-28T10:38:01.438Z,64.20
2022-10-28T10:40:32.014Z,64.30
2022-10-28T10:43:24.280Z,64.50
2022-10-28T10:45:59.807Z,64.40
2022-10-28T10:48:28.184Z,64.30
2022-10-28T10:50:57.556Z,64.10
2022-10-28T10:53:27.562Z,64.00
2022-10-28T10:56:00.581Z,64.30
2022-10-28T10:58:32.046Z,64.20
2022-10-28T11:01:02.770Z,64.30
2022-10-28T11:03:36.604Z,64.20
2022-10-28T11:06:23.163Z,64.00
2022-10-28T11:08:57.576Z,63.90
2022-10-28T11:11:33.647Z,64.00
2022-10-28T11:14:08.572Z,64.00
2022-10-28T11:16:48.727Z,64.10
2022-10-28T11:19:21.774Z,64.00
2022-10-28T11:22:12.038Z,64.20
2022-10-28T11:25:01.829Z,64.10
2022-10-28T11:27:41.339Z,64.00
2022-10-28T11:30:14.707Z,64.00
2022-10-28T11:33:02.217Z,64.20
2022-10-28T11:35:52.630Z,64.20
2022-10-28T11:38:35.308Z,64.00
2022-10-28T11:41:15.290Z,64.20
2022-10-28T11:43:54.796Z,64.20
2022-10-28T11:46:37.534Z,64.10
2022-10-28T11:49:32.475Z,64.10
2022-10-28T11:52:11.605Z,64.10
2022-10-28T11:54:52.702Z,64.10
2022-10-28T11:57:29.314Z,64.00
2022-10-28T12:00:23.126Z,64.20
2022-10-28T12:03:10.488Z,63.90
2022-10-28T12:05:44.704Z,64.00
2022-10-28T12:08:29.179Z,63.90
2022-10-28T12:11:21.553Z,64.00
2022-10-28T12:13:59.017Z,64.20
2022-10-28T12:16:33.386Z,63.90
2022-10-28T12:19:04.810Z,63.90
2022-10-28T12:24:14.194Z,63.90
2022-10-28T12:26:45.876Z,64.00
2022-10-28T12:29:19.865Z,63.60
2022-10-28T12:31:51.232Z,63.60
2022-10-28T12:34:25.904Z,63.90
2022-10-28T12:36:59.588Z,63.90
2022-10-28T12:39:33.288Z,63.90
2022-10-28T12:42:06.994Z,63.80
2022-10-28T12:44:35.842Z,63.80
2022-10-28T12:47:12.995Z,63.50
2022-10-28T12:49:49.259Z,63.50
2022-10-28T12:52:28.315Z,63.30
2022-10-28T12:55:00.995Z,63.20
2022-10-28T12:57:34.099Z,63.30
2022-10-28T13:00:05.558Z,63.70
2022-10-28T13:02:39.284Z,63.60
2022-10-28T13:05:08.253Z,63.60
2022-10-28T13:08:24.286Z,63.70
2022-10-28T13:10:58.582Z,63.40
2022-10-28T13:13:44.896Z,63.50
2022-10-28T13:16:42.873Z,63.10
2022-10-28T13:19:29.786Z,63.20
2022-10-28T13:22:19.290Z,62.90
2022-10-28T13:24:59.232Z,63.50
2022-10-28T13:27:27.533Z,63.20
2022-10-28T13:30:00.350Z,63.40
2022-10-28T13:32:38.377Z,63.50
2022-10-28T13:35:16.184Z,63.50
2022-10-28T13:37:48.470Z,63.60
2022-10-28T13:40:24.289Z,64.00
2022-10-28T13:42:52.268Z,63.90
2022-10-28T13:45:48.249Z,64.00
2022-10-28T13:48:47.961Z,64.00
2022-10-28T13:51:32.351Z,63.90
2022-10-28T13:54:00.205Z,64.10
2022-10-28T13:56:42.085Z,64.40
2022-10-28T13:59:22.015Z,64.40
2022-10-28T14:02:07.794Z,64.30
2022-10-28T14:04:43.828Z,64.40
2022-10-28T14:07:21.848Z,64.40
2022-10-28T14:09:53.589Z,64.40
2022-10-28T14:12:30.347Z,65.20
2022-10-28T14:15:16.827Z,64.50
2022-10-28T14:17:50.312Z,64.60
2022-10-28T14:20:31.728Z,64.40
2022-10-28T14:22:59.644Z,64.40
2022-10-28T14:26:00.756Z,64.40
2022-10-28T14:28:52.426Z,64.30
2022-10-28T14:31:40.458Z,64.50
2022-10-28T14:34:36.004Z,64.40
2022-10-28T14:37:18.197Z,64.50
2022-10-28T14:39:57.892Z,64.70
2022-10-28T14:42:41.265Z,64.70
2022-10-28T14:45:24.754Z,64.60
2022-10-28T14:48:14.096Z,64.40
2022-10-28T14:50:46.893Z,64.70
2022-10-28T14:53:20.324Z,64.60
2022-10-28T14:55:56.646Z,64.70
2022-10-28T14:58:28.249Z,64.70
2022-10-28T15:01:07.270Z,64.70
2022-10-28T15:03:35.508Z,65.00
2022-10-28T15:06:25.259Z,65.10
2022-10-28T15:08:54.335Z,65.00
2022-10-28T15:11:23.317Z,65.00
2022-10-28T15:13:53.487Z,65.10
2022-10-28T15:16:23.127Z,65.10
2022-10-28T15:18:52.715Z,65.00
2022-10-28T15:21:23.781Z,65.20
2022-10-28T15:24:01.900Z,65.10
2022-10-28T15:26:29.872Z,65.30
2022-10-28T15:28:57.674Z,65.30
2022-10-28T15:31:25.517Z,65.20
2022-10-28T15:33:53.303Z,65.40
2022-10-28T15:36:24.530Z,65.40
2022-10-28T15:38:53.583Z,65.50
2022-10-28T15:41:44.921Z,65.40
2022-10-28T15:44:37.698Z,65.20
2022-10-28T15:47:19.577Z,65.80
2022-10-28T15:50:03.037Z,65.00
2022-10-28T15:52:40.683Z,64.90
2022-10-28T15:56:02.479Z,65.10
2022-10-28T15:58:36.531Z,64.80
2022-10-28T16:01:05.773Z,64.40
2022-10-28T16:03:43.794Z,64.40
2022-10-28T16:06:24.552Z,64.20
2022-10-28T16:09:03.347Z,64.30
2022-10-28T16:11:33.241Z,64.20
2022-10-28T16:14:03.243Z,64.40
2022-10-28T16:16:32.536Z,64.30
2022-10-28T16:19:07.118Z,64.20
2022-10-28T16:21:36.378Z,64.10
2022-10-28T16:24:05.799Z,64.10
2022-10-28T16:26:33.855Z,64.20
2022-10-28T16:29:01.603Z,64.20
2022-10-28T16:31:31.254Z,64.20
2022-10-28T16:34:13.288Z,64.10
2022-10-28T16:36:41.069Z,64.10
2022-10-28T16:39:12.940Z,64.30
2022-10-28T16:41:41.129Z,64.40
2022-10-28T16:44:17.575Z,64.30
2022-10-28T16:46:45.337Z,64.20
2022-10-28T16:49:13.078Z,64.30
2022-10-28T16:51:40.817Z,64.40
2022-10-28T16:54:09.309Z,64.40
2022-10-28T16:56:38.947Z,64.40
2022-10-28T16:59:06.774Z,64.60
2022-10-28T17:01:35.446Z,64.40
2022-10-28T17:04:03.230Z,64.30
2022-10-28T17:06:30.955Z,64.60
2022-10-28T17:09:03.250Z,64.50
2022-10-28T17:14:06.063Z,64.70
2022-10-28T17:16:35.180Z,64.60
2022-10-28T17:19:04.824Z,64.70
2022-10-28T17:21:32.559Z,64.70
2022-10-28T17:24:00.308Z,64.60
2022-10-28T17:26:28.079Z,64.70
2022-10-28T17:28:55.820Z,64.80
2022-10-28T17:31:25.613Z,64.70
2022-10-28T17:33:56.596Z,64.80
2022-10-28T17:36:24.444Z,64.90
2022-10-28T17:38:52.221Z,64.80
2022-10-28T17:41:20.301Z,64.90
2022-10-28T17:43:48.060Z,64.90
2022-10-28T17:46:15.781Z,65.20
2022-10-28T17:48:44.870Z,65.10
2022-10-28T17:51:12.683Z,65.20
2022-10-28T17:53:40.446Z,65.30
2022-10-28T17:56:09.070Z,65.60
2022-10-28T17:58:37.187Z,65.40
2022-10-28T18:01:07.309Z,65.40
2022-10-28T18:03:39.053Z,65.30
2022-10-28T18:06:11.432Z,65.30
2022-10-28T18:08:41.397Z,65.30
2022-10-28T18:11:11.061Z,65.40
2022-10-28T18:13:40.706Z,65.30
2022-10-28T18:16:10.172Z,65.60
2022-10-28T18:18:42.139Z,65.50
2022-10-28T18:21:12.572Z,65.40
2022-10-28T18:23:40.895Z,65.30
2022-10-28T18:26:12.104Z,65.30
2022-10-28T18:28:40.938Z,65.50
2022-10-28T18:31:12.208Z,65.60
2022-10-28T18:33:40.531Z,65.60
2022-10-28T18:36:12.479Z,65.60
2022-10-28T18:38:40.624Z,65.50
2022-10-28T18:41:11.552Z,65.70
2022-10-28T18:43:39.385Z,65.70
2022-10-28T18:46:07.475Z,65.70
2022-10-28T18:48:35.695Z,65.80
2022-10-28T18:51:06.620Z,66.00
2022-10-28T18:53:38.832Z,66.00
2022-10-28T18:56:08.095Z,65.90
2022-10-28T18:58:36.454Z,65.90
2022-10-28T19:01:06.201Z,65.90
2022-10-28T19:03:34.052Z,65.70
2022-10-28T19:06:02.901Z,65.70
2022-10-28T19:08:30.632Z,65.70
2022-10-28T19:11:01.047Z,65.60
2022-10-28T19:13:29.267Z,65.70
2022-10-28T19:15:57.055Z,65.60
2022-10-28T19:18:24.876Z,65.50
2022-10-28T19:20:54.438Z,65.60
2022-10-28T19:23:22.172Z,65.70
2022-10-28T19:25:55.516Z,65.70
2022-10-28T19:28:24.785Z,65.80
2022-10-28T19:31:01.146Z,65.80
2022-10-28T19:33:29.925Z,65.90
2022-10-28T19:36:02.681Z,66.00
2022-10-28T19:38:35.167Z,66.00
2022-10-28T19:41:04.654Z,66.00
2022-10-28T19:43:34.117Z,65.80
2022-10-28T19:46:10.234Z,66.00
2022-10-28T19:48:38.946Z,66.20
2022-10-28T19:51:07.266Z,66.10
2022-10-28T19:53:35.397Z,65.90
2022-10-28T19:56:04.917Z,65.80
2022-10-28T19:58:34.745Z,66.00
2022-10-28T20:01:04.630Z,66.30
2022-10-28T20:03:34.594Z,66.50
2022-10-28T20:06:05.774Z,66.40
2022-10-28T20:08:37.514Z,66.30
2022-10-28T20:11:06.764Z,66.30
2022-10-28T20:13:36.602Z,66.30
2022-10-28T20:16:06.530Z,66.40
2022-10-28T20:18:34.814Z,66.20
2022-10-28T20:21:07.338Z,66.40
2022-10-28T20:23:35.714Z,66.30
2022-10-28T20:26:05.082Z,66.60
2022-10-28T20:28:33.462Z,66.70
2022-10-28T20:31:03.865Z,66.70
2022-10-28T20:33:32.172Z,66.50
2022-10-28T20:36:00.053Z,66.80
2022-10-28T20:38:28.657Z,66.80
2022-10-28T20:40:58.090Z,66.70
2022-10-28T20:43:28.652Z,66.60
2022-10-28T20:45:59.570Z,66.60
2022-10-28T20:48:30.046Z,66.90
2022-10-28T20:50:59.386Z,66.70
2022-10-28T20:53:28.788Z,67.00
2022-10-28T20:55:58.023Z,66.90
2022-10-28T20:58:30.203Z,67.00
2022-10-28T21:01:04.114Z,67.10
2022-10-28T21:03:33.257Z,67.20
2022-10-28T21:06:03.239Z,67.10
2022-10-28T21:08:31.153Z,67.20
2022-10-28T21:11:03.176Z,67.20
2022-10-28T21:13:31.067Z,67.20
2022-10-28T21:15:59.081Z,67.20
2022-10-28T21:18:26.975Z,67.00
2022-10-28T21:21:01.559Z,66.90
2022-10-28T21:23:30.156Z,67.10
2022-10-28T21:25:59.713Z,67.30
2022-10-28T21:28:28.637Z,67.30
2022-10-28T21:31:00.424Z,68.20
2022-10-28T21:33:28.708Z,67.40
2022-10-28T21:35:58.623Z,67.30
2022-10-28T21:38:27.390Z,67.30
2022-10-28T21:41:02.784Z,67.20
2022-10-28T21:43:31.923Z,67.40
2022-10-28T21:45:59.937Z,67.50
2022-10-28T21:48:29.982Z,67.40
2022-10-28T21:51:01.478Z,67.50
2022-10-28T21:53:31.922Z,67.30
2022-10-28T21:56:03.433Z,67.30
2022-10-28T21:58:31.281Z,67.40
2022-10-28T22:01:04.447Z,67.20
2022-10-28T22:03:32.265Z,67.10
2022-10-28T22:06:01.515Z,67.30
2022-10-28T22:08:29.806Z,67.50
2022-10-28T22:11:02.287Z,67.50
2022-10-28T22:13:30.898Z,67.60
2022-10-28T22:15:59.986Z,67.60
2022-10-28T22:18:28.524Z,67.50
2022-10-28T22:20:56.734Z,67.40
2022-10-28T22:23:25.847Z,67.40
2022-10-28T22:25:53.631Z,67.50
2022-10-28T22:28:21.399Z,67.30
2022-10-28T22:30:49.129Z,67.30
2022-10-28T22:33:16.877Z,67.30
2022-10-28T22:35:44.625Z,67.50
2022-10-28T22:38:12.406Z,67.30
2022-10-28T22:40:41.579Z,67.60
2022-10-28T22:43:09.402Z,67.70
2022-10-28T22:45:37.265Z,67.60
2022-10-28T22:48:05.256Z,67.60
2022-10-28T22:50:33.060Z,67.60
2022-10-28T22:53:00.858Z,67.60
2022-10-28T22:55:28.764Z,67.80
2022-10-28T22:57:58.277Z,67.90
2022-10-28T23:00:26.128Z,67.90
2022-10-28T23:02:54.197Z,67.70
2022-10-28T23:05:22.261Z,67.60
2022-10-28T23:07:50.248Z,67.60
2022-10-28T23:10:18.128Z,67.60
2022-10-28T23:12:45.915Z,67.60
2022-10-28T23:15:15.131Z,67.90
2022-10-28T23:17:42.878Z,67.90
2022-10-28T23:20:11.729Z,68.00
2022-10-28T23:22:39.475Z,68.10
2022-10-28T23:25:08.471Z,67.90
2022-10-28T23:27:36.293Z,68.10
2022-10-28T23:30:04.339Z,68.10
2022-10-28T23:32:33.499Z,67.90
2022-10-28T23:35:01.288Z,67.90
2022-10-28T23:37:29.252Z,67.90
2022-10-28T23:39:57.108Z,67.90
2022-10-28T23:42:25.119Z,67.80
2022-10-28T23:44:52.859Z,68.10
2022-10-28T23:47:20.699Z,68.10
2022-10-28T23:49:49.806Z,68.10
2022-10-28T23:52:17.572Z,68.10
2022-10-28T23:54:45.364Z,68.20
2022-10-28T23:57:13.138Z,68.10
2022-10-28T23:59:40.953Z,67.90
